Edenbridge, United Kingdom
Current Conditions -  °F | °C
As of 7:20 PM on Saturday 22 Nov 2014 (Local Time) from EGKB Reporting Station
Moderate Fog Moderate Fog  
Wind Chill: 55°   Ceiling: Unl
Heat Index: 55°   Visibility: 1mi
Dew Point: 54°   Wind: 7mph
Humidity: 94%   Direction: 210°SSW
Pressure: 29.97"   Gusts: NA
Location:  51.19°N, 0.07°E
Report Text: EGKB 221920Z 21006KT 1600 R21/P0800 FG VV/// 13/12 Q1015
Loading
Personal Weather Stations






























Interactive Weather Map New forecast layout! Learn more

10-Day Weather Forecast

Advertisements
Track Severe Weather on mobile